KCCR/CCR METAR and TAF weather

Enter ICAO airport designator
Station Type Date Time Source
KCCR METAR 2020/04/08 21:53 UTC NOAA

KCCR 082153Z 20010KT 10SM CLR 19/11 A2992 RMK AO2 SLP119 T01940106


Station Type Date Time Source
KCCR Decoded METAR 2020/04/08 21:53 UTC NOAA

CONCORD BUCHANAN FIELD, CA, United States (KCCR) 38-00N 122-03W 11M
Apr 08, 2020 - 05:53 PM EDT / 2020.04.08 2153 UTC
Wind: from the SSW (200 degrees) at 12 MPH (10 KT):0
Visibility: 10 mile(s):0
Sky conditions: clear
Temperature: 66.9 F (19.4 C)
Dew Point: 51.1 F (10.6 C)
Relative Humidity: 56%
Pressure (altimeter): 29.92 in. Hg (1013 hPa)
ob: KCCR 082153Z 20010KT 10SM CLR 19/11 A2992 RMK AO2 SLP119 T01940106
cycle: 22

Station Type Date Time Source
KCCR TAF 2016/02/08 18:39 UTC NOAA

TAF KCCR 081738Z 0818/0918 07006KT P6SM SKC
FM082000 06010KT P6SM SKC
FM090000 06005KT P6SM SKC
FM090600 VRB03KT P6SM SKC

Example: see airport list